ADDS METAR Data INFO
IDs: Format: Raw Decoded Include TAF

Data at: 1612 UTC 14 Aug 2018

KRAS 141555Z AUTO 16013KT 10SM CLR 31/25 A2999 RMK AO2 T03050252
KRAS 141535Z AUTO 16012KT 10SM CLR 30/25 A2999 RMK AO2 T03040250
KRAS 141515Z AUTO 16010KT 10SM CLR 30/25 A2998 RMK AO2 T03040250
KRAS 141455Z AUTO 16012KT 10SM CLR 30/25 A2998 RMK AO2 T03020253
KRAS 141435Z AUTO 16010KT 10SM CLR 30/25 A2998 RMK AO2 T03000252
KRAS 141415Z AUTO 16010KT 10SM SCT021 SCT025 30/25 A2997 RMK AO2 T02980252
KRAS 141355Z AUTO 17008KT 10SM SCT019 SCT024 30/25 A2997 RMK AO2 T02970255
KRAS 141335Z AUTO 17010G17KT 10SM CLR 29/25 A2997 RMK AO2 T02930250
KRAS 141315Z AUTO 16010KT 10SM SCT020 29/25 A2997 RMK AO2 T02890248
KRAS 141255Z AUTO 16011G18KT 10SM SCT022 SCT027 29/25 A2996 RMK AO2 T02860248
KRAS 141235Z AUTO 16013KT 10SM SCT022 28/25 A2997 RMK AO2 T02850248
KRAS 141215Z AUTO 16011KT 10SM SCT022 SCT026 28/25 A2996 RMK AO2 T02840247
KRAS 141155Z AUTO 16013G17KT 10SM SCT022 28/25 A2996 RMK AO2 T02830248 10286 20282
KRAS 141135Z AUTO 15013KT 10SM SCT020 28/25 A2995 RMK AO2 T02830248
KRAS 141115Z AUTO 16013KT 10SM SCT020 28/25 A2995 RMK AO2 T02830246
KRAS 141055Z AUTO 15013KT 10SM CLR 28/25 A2995 RMK AO2 T02830246
KRAS 141035Z AUTO 16013G18KT 10SM CLR 28/25 A2995 RMK AO2 T02840246
KRAS 141015Z AUTO 15015G20KT 10SM CLR 28/24 A2995 RMK AO2 T02840243
KRAS 140955Z AUTO 16013KT 10SM CLR 28/25 A2996 RMK AO2 T02840245
KRAS 140935Z AUTO 16011G17KT 10SM CLR 28/24 A2996 RMK AO2 T02850242
KRAS 140915Z AUTO 16014G18KT 10SM CLR 28/24 A2996 RMK AO2 T02850244
KRAS 140855Z AUTO 15014G20KT 10SM SCT019 28/24 A2996 RMK AO2 T02850243
KRAS 140835Z AUTO 15017G21KT 10SM SCT019 28/25 A2996 RMK AO2 T02850246
KRAS 140815Z AUTO 15016KT 10SM SCT019 28/25 A2996 RMK AO2 T02850246
KRAS 140755Z AUTO 15015G19KT 10SM SCT019 28/25 A2996 RMK AO2 T02850247
KRAS 140735Z AUTO 15015G18KT 10SM SCT019 29/25 A2997 RMK AO2 T02850247
KRAS 140715Z AUTO 15015G20KT 10SM CLR 29/25 A2997 RMK AO2 T02860248
KRAS 140655Z AUTO 15015G20KT 10SM CLR 29/25 A2998 RMK AO2 T02860247
KRAS 140635Z AUTO 14017G21KT 10SM CLR 29/25 A2998 RMK AO2 T02850246
KRAS 140615Z AUTO 14015G21KT 10SM CLR 29/25 A2998 RMK AO2 T02860247
KRAS 140555Z AUTO 14017G20KT 10SM CLR 28/25 A2999 RMK AO2 T02850246 10298 20285
KRAS 140535Z AUTO 15016G20KT 10SM CLR 29/24 A2999 RMK AO2 T02860244
KRAS 140515Z AUTO 14013KT 10SM CLR 29/24 A3000 RMK AO2 T02860244
KRAS 140455Z AUTO 14014G17KT 10SM CLR 29/25 A3000 RMK AO2 T02860245
KRAS 140435Z AUTO 14013G20KT 10SM CLR 29/24 A3000 RMK AO2 T02860242
KRAS 140415Z AUTO 14014G18KT 10SM CLR 29/24 A3000 RMK AO2 T02870244
KRAS 140355Z AUTO 13013KT 10SM CLR 29/24 A2999 RMK AO2 T02870243
KRAS 140330Z AUTO 14009KT 10SM CLR 29/24 A2999 RMK AO2 T02870245
KRAS 140315Z AUTO 13013KT 10SM CLR 29/24 A2999 RMK AO2 T02880242
KRAS 140255Z AUTO 13013KT 10SM CLR 29/24 A2998 RMK AO2 T02880243
KRAS 140235Z AUTO 14011G16KT 10SM CLR 29/24 A2997 RMK AO2 LTG DSNT W T02880241
KRAS 140215Z AUTO 13012G18KT 10SM CLR 29/24 A2996 RMK AO2 T02880242
KRAS 140155Z AUTO 13012KT 10SM CLR 29/24 A2996 RMK AO2 T02890245
KRAS 140135Z AUTO 13013KT 10SM CLR 29/24 A2995 RMK AO2 T02890244
KRAS 140115Z AUTO 14011KT 10SM CLR 29/25 A2995 RMK AO2 T02890245
KRAS 140055Z AUTO 14013G17KT 10SM CLR 29/24 A2996 RMK AO2 T02910244
KRAS 140035Z AUTO 14013KT 10SM CLR 29/24 A2996 RMK AO2 T02920244
KRAS 140015Z AUTO 14012KT 10SM CLR 29/24 A2996 RMK AO2 T02950242
KRAS 132355Z AUTO 14011KT 10SM CLR 30/24 A2996 RMK AO2 T02980240 10322 20297 403220283
KRAS 132335Z AUTO 14013G16KT 10SM CLR 30/24 A2996 RMK AO2 T03030244
KRAS 132315Z AUTO 14013KT 10SM CLR 30/24 A2995 RMK AO2 T03040242
KRAS 132255Z AUTO 14014KT 10SM CLR 31/24 A2996 RMK AO2 T03100243
KRAS 132235Z AUTO 14016KT 10SM CLR 31/24 A2996 RMK AO2 T03090244
KRAS 132215Z AUTO 14016KT 10SM CLR 31/25 A2996 RMK AO2 T03130247
KRAS 132155Z AUTO 14017KT 10SM CLR 31/25 A2997 RMK AO2 T03150250
KRAS 132135Z AUTO 14016KT 10SM CLR 31/25 A2997 RMK AO2 T03120246
KRAS 132115Z AUTO 15014KT 10SM CLR 31/25 A2998 RMK AO2 T03140247
KRAS 132055Z AUTO 15014KT 10SM SCT018 32/25 A2998 RMK AO2 T03160249
KRAS 132035Z AUTO 14015KT 10SM SCT020 32/25 A2999 RMK AO2 T03160253
KRAS 132015Z AUTO 14013KT 10SM CLR 31/25 A3000 RMK AO2 T03130250
KRAS 131955Z AUTO 15014G18KT 10SM CLR 32/25 A3001 RMK AO2 T03160252
KRAS 131935Z AUTO 15011KT 10SM CLR 31/25 A3002 RMK AO2 T03130251
KRAS 131915Z AUTO 14014KT 10SM SCT021 SCT026 32/25 A3002 RMK AO2 T03190252
KRAS 131855Z AUTO 15011KT 10SM SCT021 SCT026 31/25 A3003 RMK AO2 T03140249
KRAS 131835Z AUTO 15012G18KT 10SM CLR 31/25 A3003 RMK AO2 T03120248
KRAS 131815Z AUTO 16012G16KT 10SM SCT021 31/25 A3004 RMK AO2 T03130248
KRAS 131755Z AUTO 15014KT 10SM CLR 31/25 A3004 RMK AO2 T03150250 10319 20283
KRAS 131735Z AUTO 16013G17KT 10SM SCT019 31/25 A3004 RMK AO2 T03110248
KRAS 131715Z AUTO 15011G16KT 10SM SCT019 SCT024 31/25 A3004 RMK AO2 T03120251
KRAS 131655Z AUTO 15014G17KT 10SM SCT020 30/25 A3004 RMK AO2 T03040250
KRAS 131635Z AUTO 16011G17KT 10SM SCT020 31/25 A3004 RMK AO2 T03080251
KRAS 131615Z AUTO 15015G18KT 10SM SCT020 31/25 A3004 RMK AO2 T03100249
KRAS 131555Z AUTO 16013G18KT 10SM CLR 31/25 A3003 RMK AO2 T03070246
KRAS 131535Z AUTO 16013G18KT 10SM CLR 30/24 A3003 RMK AO2 T03000242
KRAS 131515Z AUTO 16014G18KT 10SM CLR 30/24 A3003 RMK AO2 T02980239
KRAS 131455Z AUTO 16011G17KT 10SM CLR 30/24 A3003 RMK AO2 T03000245
KRAS 131435Z AUTO 16011KT 10SM CLR 30/25 A3003 RMK AO2 T02970247
KRAS 131415Z AUTO 16012KT 10SM CLR 29/24 A3003 RMK AO2 T02940244
KRAS 131355Z AUTO 17013G17KT 10SM CLR 29/25 A3003 RMK AO2 T02930246
KRAS 131335Z AUTO 16011G19KT 10SM CLR 29/25 A3003 RMK AO2 T02890245
KRAS 131315Z AUTO 16013KT 10SM CLR 29/25 A3003 RMK AO2 T02880246
KRAS 131255Z AUTO 16013G18KT 10SM CLR 29/25 A3003 RMK AO2 T02860247
KRAS 131235Z AUTO 16012KT 10SM CLR 29/25 A3003 RMK AO2 T02850247
KRAS 131215Z AUTO 17012KT 10SM CLR 28/25 A3003 RMK AO2 T02840246
KRAS 131155Z AUTO 17011G15KT 10SM CLR 28/25 A3002 RMK AO2 T02840249 10291 20284
KRAS 131135Z AUTO 16012KT 10SM SCT018 28/25 A3002 RMK AO2 T02840248
KRAS 131115Z AUTO 16012G17KT 10SM SCT016 28/25 A3002 RMK AO2 T02840250
KRAS 131055Z AUTO 16011KT 10SM SCT016 28/25 A3001 RMK AO2 T02850253
KRAS 131035Z AUTO 16012G16KT 10SM CLR 28/25 A3001 RMK AO2 T02850251
KRAS 131015Z AUTO 16013KT 10SM CLR 29/25 A3000 RMK AO2 T02860249
KRAS 130955Z AUTO 16013G20KT 10SM CLR 29/25 A3000 RMK AO2 T02870249
KRAS 130935Z AUTO 17012G18KT 10SM SCT016 29/25 A3001 RMK AO2 T02860252
KRAS 130915Z AUTO 17014G20KT 10SM SCT016 29/25 A3001 RMK AO2 T02860252
KRAS 130855Z AUTO 17013G18KT 10SM SCT016 29/25 A3001 RMK AO2 T02870253
KRAS 130835Z AUTO 17011G19KT 10SM SCT016 29/26 A3000 RMK AO2 T02870256
KRAS 130815Z AUTO 17014G20KT 10SM SCT016 SCT021 29/26 A3001 RMK AO2 T02880256
KRAS 130755Z AUTO 17016G20KT 10SM SCT016 BKN021 29/26 A3001 RMK AO2 T02880258
KRAS 130735Z AUTO 16013G20KT 10SM BKN016 BKN023 29/26 A3001 RMK AO2 T02880259
KRAS 130715Z AUTO 16016KT 10SM BKN016 BKN025 29/26 A3002 RMK AO2 T02890261
KRAS 130655Z AUTO 16014G20KT 10SM SCT018 29/26 A3002 RMK AO2 T02890258
KRAS 130635Z AUTO 15015G21KT 10SM SCT017 SCT021 SCT028 29/26 A3002 RMK AO2 T02900258
KRAS 130615Z AUTO 15013KT 10SM SCT017 SCT021 SCT028 29/26 A3002 RMK AO2 T02900260
KRAS 130555Z AUTO 15015G19KT 10SM SCT017 SCT023 SCT034 29/26 A3003 RMK AO2 T02910261 10301 20290
KRAS 130535Z AUTO 15013KT 10SM SCT029 SCT034 29/26 A3004 RMK AO2 T02920263
KRAS 130515Z AUTO 15013KT 10SM SCT018 BKN030 29/26 A3004 RMK AO2 T02920265
KRAS 130455Z AUTO 15014KT 10SM SCT026 29/26 A3002 RMK AO2 T02910264
KRAS 130435Z AUTO 14014G17KT 10SM SCT026 29/27 A3002 RMK AO2 T02920266
KRAS 130415Z AUTO 14014G17KT 10SM SCT020 SCT026 29/27 A3001 RMK AO2 T02920265